sensor_id;sensor_type;location;lat;lon;timestamp;P1;durP1;ratioP1;P2;durP2;ratioP2
24030;SDS011;12240;51.142;22.486;2022-07-29T00:00:39;5.63;;;2.85;;
24030;SDS011;12240;51.142;22.486;2022-07-29T00:03:07;8.50;;;2.92;;
24030;SDS011;12240;51.142;22.486;2022-07-29T00:05:36;6.60;;;2.90;;
24030;SDS011;12240;51.142;22.486;2022-07-29T00:08:08;11.98;;;2.38;;
24030;SDS011;12240;51.142;22.486;2022-07-29T00:10:38;8.75;;;2.42;;
24030;SDS011;12240;51.142;22.486;2022-07-29T00:13:07;9.63;;;2.67;;
24030;SDS011;12240;51.142;22.486;2022-07-29T00:15:35;6.60;;;2.30;;
24030;SDS011;12240;51.142;22.486;2022-07-29T00:18:04;8.25;;;2.40;;
24030;SDS011;12240;51.142;22.486;2022-07-29T00:20:32;5.35;;;2.35;;
24030;SDS011;12240;51.142;22.486;2022-07-29T00:23:00;5.25;;;2.20;;
24030;SDS011;12240;51.142;22.486;2022-07-29T00:25:28;8.18;;;2.88;;
24030;SDS011;12240;51.142;22.486;2022-07-29T00:27:59;5.97;;;2.60;;
24030;SDS011;12240;51.142;22.486;2022-07-29T00:30:27;4.00;;;2.53;;
24030;SDS011;12240;51.142;22.486;2022-07-29T00:32:56;9.60;;;2.20;;
24030;SDS011;12240;51.142;22.486;2022-07-29T00:35:24;4.72;;;2.05;;
24030;SDS011;12240;51.142;22.486;2022-07-29T00:38:14;6.05;;;2.50;;
24030;SDS011;12240;51.142;22.486;2022-07-29T00:40:45;4.55;;;2.50;;
24030;SDS011;12240;51.142;22.486;2022-07-29T00:43:14;12.40;;;2.60;;
24030;SDS011;12240;51.142;22.486;2022-07-29T00:45:44;5.32;;;2.20;;
24030;SDS011;12240;51.142;22.486;2022-07-29T00:48:12;5.15;;;2.25;;
24030;SDS011;12240;51.142;22.486;2022-07-29T00:50:40;6.95;;;2.42;;
24030;SDS011;12240;51.142;22.486;2022-07-29T00:53:10;5.57;;;2.60;;
24030;SDS011;12240;51.142;22.486;2022-07-29T00:55:39;6.68;;;2.65;;
24030;SDS011;12240;51.142;22.486;2022-07-29T00:58:08;7.15;;;2.88;;
24030;SDS011;12240;51.142;22.486;2022-07-29T01:00:38;6.43;;;2.80;;
24030;SDS011;12240;51.142;22.486;2022-07-29T01:03:08;8.18;;;3.03;;
24030;SDS011;12240;51.142;22.486;2022-07-29T01:05:36;7.13;;;2.60;;
24030;SDS011;12240;51.142;22.486;2022-07-29T01:08:17;5.32;;;2.90;;
24030;SDS011;12240;51.142;22.486;2022-07-29T01:10:47;6.63;;;2.80;;
24030;SDS011;12240;51.142;22.486;2022-07-29T01:13:16;8.63;;;2.45;;
24030;SDS011;12240;51.142;22.486;2022-07-29T01:15:47;6.47;;;2.70;;
24030;SDS011;12240;51.142;22.486;2022-07-29T01:18:30;4.68;;;2.85;;
24030;SDS011;12240;51.142;22.486;2022-07-29T01:24:08;5.75;;;2.90;;
24030;SDS011;12240;51.142;22.486;2022-07-29T01:30:19;8.07;;;2.85;;
24030;SDS011;12240;51.142;22.486;2022-07-29T01:32:56;10.13;;;2.97;;
24030;SDS011;12240;51.142;22.486;2022-07-29T01:35:35;6.82;;;2.83;;
24030;SDS011;12240;51.142;22.486;2022-07-29T01:38:13;9.52;;;3.20;;
24030;SDS011;12240;51.142;22.486;2022-07-29T01:40:52;7.22;;;2.95;;
24030;SDS011;12240;51.142;22.486;2022-07-29T01:43:32;4.97;;;2.60;;
24030;SDS011;12240;51.142;22.486;2022-07-29T01:46:13;6.43;;;2.63;;
24030;SDS011;12240;51.142;22.486;2022-07-29T01:48:47;6.80;;;2.95;;
24030;SDS011;12240;51.142;22.486;2022-07-29T01:51:29;7.53;;;2.63;;
24030;SDS011;12240;51.142;22.486;2022-07-29T01:56:58;9.63;;;2.80;;
24030;SDS011;12240;51.142;22.486;2022-07-29T01:59:27;7.80;;;2.80;;
24030;SDS011;12240;51.142;22.486;2022-07-29T02:01:57;6.45;;;2.83;;
24030;SDS011;12240;51.142;22.486;2022-07-29T02:04:27;6.38;;;2.50;;
24030;SDS011;12240;51.142;22.486;2022-07-29T02:06:58;4.75;;;2.42;;
24030;SDS011;12240;51.142;22.486;2022-07-29T02:09:33;6.30;;;2.47;;
24030;SDS011;12240;51.142;22.486;2022-07-29T02:12:03;4.38;;;2.15;;
24030;SDS011;12240;51.142;22.486;2022-07-29T02:14:34;12.10;;;3.00;;
24030;SDS011;12240;51.142;22.486;2022-07-29T02:17:09;4.15;;;2.42;;
24030;SDS011;12240;51.142;22.486;2022-07-29T02:19:39;6.82;;;3.10;;
24030;SDS011;12240;51.142;22.486;2022-07-29T02:22:11;7.45;;;2.60;;
24030;SDS011;12240;51.142;22.486;2022-07-29T02:24:41;12.43;;;2.70;;
24030;SDS011;12240;51.142;22.486;2022-07-29T02:27:12;9.93;;;3.17;;
24030;SDS011;12240;51.142;22.486;2022-07-29T02:29:42;6.77;;;3.00;;
24030;SDS011;12240;51.142;22.486;2022-07-29T02:34:43;7.22;;;2.90;;
24030;SDS011;12240;51.142;22.486;2022-07-29T02:37:13;6.78;;;2.88;;
24030;SDS011;12240;51.142;22.486;2022-07-29T02:39:44;6.65;;;2.78;;
24030;SDS011;12240;51.142;22.486;2022-07-29T02:42:15;7.47;;;2.72;;
24030;SDS011;12240;51.142;22.486;2022-07-29T02:44:45;7.18;;;3.00;;
24030;SDS011;12240;51.142;22.486;2022-07-29T02:47:18;9.27;;;2.85;;
24030;SDS011;12240;51.142;22.486;2022-07-29T02:50:09;9.48;;;3.20;;
24030;SDS011;12240;51.142;22.486;2022-07-29T02:53:00;8.10;;;2.80;;
24030;SDS011;12240;51.142;22.486;2022-07-29T02:55:43;6.97;;;2.72;;
24030;SDS011;12240;51.142;22.486;2022-07-29T02:58:24;7.93;;;2.95;;
24030;SDS011;12240;51.142;22.486;2022-07-29T03:01:04;8.75;;;3.10;;
24030;SDS011;12240;51.142;22.486;2022-07-29T03:03:48;8.77;;;2.90;;
24030;SDS011;12240;51.142;22.486;2022-07-29T03:06:20;6.80;;;2.95;;
24030;SDS011;12240;51.142;22.486;2022-07-29T03:09:05;7.88;;;2.80;;
24030;SDS011;12240;51.142;22.486;2022-07-29T03:11:40;8.32;;;2.83;;
24030;SDS011;12240;51.142;22.486;2022-07-29T03:14:17;8.95;;;2.72;;
24030;SDS011;12240;51.142;22.486;2022-07-29T03:16:47;6.47;;;3.03;;
24030;SDS011;12240;51.142;22.486;2022-07-29T03:19:17;10.63;;;2.58;;
24030;SDS011;12240;51.142;22.486;2022-07-29T03:21:46;3.63;;;2.25;;
24030;SDS011;12240;51.142;22.486;2022-07-29T03:24:31;4.95;;;2.60;;
24030;SDS011;12240;51.142;22.486;2022-07-29T03:27:03;10.90;;;3.20;;
24030;SDS011;12240;51.142;22.486;2022-07-29T03:29:32;8.02;;;3.85;;
24030;SDS011;12240;51.142;22.486;2022-07-29T03:32:02;7.25;;;2.80;;
24030;SDS011;12240;51.142;22.486;2022-07-29T03:34:35;8.98;;;3.25;;
24030;SDS011;12240;51.142;22.486;2022-07-29T03:37:05;7.15;;;3.10;;
24030;SDS011;12240;51.142;22.486;2022-07-29T03:39:36;9.00;;;3.13;;
24030;SDS011;12240;51.142;22.486;2022-07-29T03:42:10;6.75;;;2.78;;
24030;SDS011;12240;51.142;22.486;2022-07-29T03:44:43;6.78;;;2.97;;
24030;SDS011;12240;51.142;22.486;2022-07-29T03:47:15;7.47;;;2.60;;
24030;SDS011;12240;51.142;22.486;2022-07-29T03:50:10;7.00;;;3.00;;
24030;SDS011;12240;51.142;22.486;2022-07-29T03:52:42;8.25;;;2.65;;
24030;SDS011;12240;51.142;22.486;2022-07-29T03:55:11;4.60;;;2.35;;
24030;SDS011;12240;51.142;22.486;2022-07-29T03:57:40;16.98;;;3.05;;
24030;SDS011;12240;51.142;22.486;2022-07-29T04:00:12;7.53;;;2.95;;
24030;SDS011;12240;51.142;22.486;2022-07-29T04:02:43;8.40;;;2.90;;
24030;SDS011;12240;51.142;22.486;2022-07-29T04:05:16;4.90;;;2.78;;
24030;SDS011;12240;51.142;22.486;2022-07-29T04:07:48;9.65;;;2.67;;
24030;SDS011;12240;51.142;22.486;2022-07-29T04:10:18;4.38;;;2.25;;
24030;SDS011;12240;51.142;22.486;2022-07-29T04:12:58;5.13;;;2.55;;
24030;SDS011;12240;51.142;22.486;2022-07-29T04:15:27;4.07;;;2.70;;
24030;SDS011;12240;51.142;22.486;2022-07-29T04:17:58;6.80;;;2.30;;
24030;SDS011;12240;51.142;22.486;2022-07-29T04:20:26;7.50;;;2.42;;
24030;SDS011;12240;51.142;22.486;2022-07-29T04:22:55;4.53;;;2.13;;
24030;SDS011;12240;51.142;22.486;2022-07-29T04:25:23;2.88;;;2.05;;
24030;SDS011;12240;51.142;22.486;2022-07-29T04:27:51;4.90;;;1.88;;
24030;SDS011;12240;51.142;22.486;2022-07-29T04:30:29;5.80;;;2.22;;
24030;SDS011;12240;51.142;22.486;2022-07-29T04:32:59;8.48;;;2.38;;
24030;SDS011;12240;51.142;22.486;2022-07-29T04:35:29;8.65;;;2.22;;
24030;SDS011;12240;51.142;22.486;2022-07-29T04:38:05;7.22;;;2.03;;
24030;SDS011;12240;51.142;22.486;2022-07-29T04:40:41;4.93;;;1.70;;
24030;SDS011;12240;51.142;22.486;2022-07-29T04:43:10;7.22;;;2.28;;
24030;SDS011;12240;51.142;22.486;2022-07-29T04:45:41;8.25;;;2.17;;
24030;SDS011;12240;51.142;22.486;2022-07-29T04:48:09;6.82;;;1.83;;
24030;SDS011;12240;51.142;22.486;2022-07-29T04:50:38;5.68;;;1.83;;
24030;SDS011;12240;51.142;22.486;2022-07-29T04:53:07;6.80;;;1.90;;
24030;SDS011;12240;51.142;22.486;2022-07-29T04:55:36;5.70;;;1.92;;
24030;SDS011;12240;51.142;22.486;2022-07-29T04:58:05;3.83;;;1.80;;
24030;SDS011;12240;51.142;22.486;2022-07-29T05:00:34;5.18;;;1.80;;
24030;SDS011;12240;51.142;22.486;2022-07-29T05:03:03;9.40;;;1.85;;
24030;SDS011;12240;51.142;22.486;2022-07-29T05:05:31;6.13;;;1.60;;
24030;SDS011;12240;51.142;22.486;2022-07-29T05:07:59;6.38;;;1.83;;
24030;SDS011;12240;51.142;22.486;2022-07-29T05:10:28;3.78;;;1.63;;
24030;SDS011;12240;51.142;22.486;2022-07-29T05:12:56;2.25;;;1.65;;
24030;SDS011;12240;51.142;22.486;2022-07-29T05:15:25;6.18;;;1.70;;
24030;SDS011;12240;51.142;22.486;2022-07-29T05:17:53;4.85;;;1.58;;
24030;SDS011;12240;51.142;22.486;2022-07-29T05:20:21;6.03;;;1.85;;
24030;SDS011;12240;51.142;22.486;2022-07-29T05:22:54;6.25;;;1.60;;
24030;SDS011;12240;51.142;22.486;2022-07-29T05:25:24;3.97;;;1.40;;
24030;SDS011;12240;51.142;22.486;2022-07-29T05:28:10;3.85;;;1.45;;
24030;SDS011;12240;51.142;22.486;2022-07-29T05:30:39;3.08;;;1.15;;
24030;SDS011;12240;51.142;22.486;2022-07-29T05:33:10;7.75;;;1.50;;
24030;SDS011;12240;51.142;22.486;2022-07-29T05:35:58;2.80;;;1.23;;
24030;SDS011;12240;51.142;22.486;2022-07-29T05:38:27;3.60;;;1.30;;
24030;SDS011;12240;51.142;22.486;2022-07-29T05:40:58;2.97;;;1.33;;
24030;SDS011;12240;51.142;22.486;2022-07-29T05:43:27;3.10;;;1.27;;
24030;SDS011;12240;51.142;22.486;2022-07-29T05:45:55;2.47;;;1.30;;
24030;SDS011;12240;51.142;22.486;2022-07-29T05:48:24;3.47;;;1.50;;
24030;SDS011;12240;51.142;22.486;2022-07-29T05:50:52;7.10;;;1.23;;
24030;SDS011;12240;51.142;22.486;2022-07-29T05:53:21;4.53;;;1.30;;
24030;SDS011;12240;51.142;22.486;2022-07-29T05:55:50;6.38;;;1.73;;
24030;SDS011;12240;51.142;22.486;2022-07-29T05:58:19;7.75;;;1.30;;
24030;SDS011;12240;51.142;22.486;2022-07-29T06:00:47;2.65;;;1.17;;
24030;SDS011;12240;51.142;22.486;2022-07-29T06:03:15;3.10;;;1.23;;
24030;SDS011;12240;51.142;22.486;2022-07-29T06:05:43;3.28;;;1.10;;
24030;SDS011;12240;51.142;22.486;2022-07-29T06:08:11;14.15;;;1.50;;
24030;SDS011;12240;51.142;22.486;2022-07-29T06:10:39;3.83;;;1.35;;
24030;SDS011;12240;51.142;22.486;2022-07-29T06:13:09;5.72;;;1.20;;
24030;SDS011;12240;51.142;22.486;2022-07-29T06:15:37;4.20;;;1.10;;
24030;SDS011;12240;51.142;22.486;2022-07-29T06:18:06;12.65;;;1.38;;
24030;SDS011;12240;51.142;22.486;2022-07-29T06:20:37;6.10;;;1.45;;
24030;SDS011;12240;51.142;22.486;2022-07-29T06:23:05;2.72;;;1.00;;
24030;SDS011;12240;51.142;22.486;2022-07-29T06:25:33;2.88;;;1.23;;
24030;SDS011;12240;51.142;22.486;2022-07-29T06:28:04;3.17;;;1.20;;
24030;SDS011;12240;51.142;22.486;2022-07-29T06:30:33;2.72;;;1.10;;
24030;SDS011;12240;51.142;22.486;2022-07-29T06:33:01;2.38;;;0.90;;
24030;SDS011;12240;51.142;22.486;2022-07-29T06:35:30;3.42;;;1.20;;
24030;SDS011;12240;51.142;22.486;2022-07-29T06:38:08;1.50;;;0.90;;
24030;SDS011;12240;51.142;22.486;2022-07-29T06:40:57;4.28;;;0.90;;
24030;SDS011;12240;51.142;22.486;2022-07-29T06:43:40;3.78;;;1.17;;
24030;SDS011;12240;51.142;22.486;2022-07-29T06:46:17;2.50;;;1.00;;
24030;SDS011;12240;51.142;22.486;2022-07-29T06:48:47;3.67;;;0.90;;
24030;SDS011;12240;51.142;22.486;2022-07-29T06:51:17;3.33;;;1.33;;
24030;SDS011;12240;51.142;22.486;2022-07-29T06:53:50;3.75;;;1.13;;
24030;SDS011;12240;51.142;22.486;2022-07-29T06:56:32;6.18;;;1.27;;
24030;SDS011;12240;51.142;22.486;2022-07-29T06:59:07;3.63;;;1.00;;
24030;SDS011;12240;51.142;22.486;2022-07-29T07:01:37;1.52;;;0.80;;
24030;SDS011;12240;51.142;22.486;2022-07-29T07:06:36;3.92;;;0.93;;
24030;SDS011;12240;51.142;22.486;2022-07-29T07:09:05;4.07;;;1.00;;
24030;SDS011;12240;51.142;22.486;2022-07-29T07:11:33;3.05;;;0.80;;
24030;SDS011;12240;51.142;22.486;2022-07-29T07:14:02;4.57;;;0.85;;
24030;SDS011;12240;51.142;22.486;2022-07-29T07:16:31;2.83;;;0.85;;
24030;SDS011;12240;51.142;22.486;2022-07-29T07:19:00;1.92;;;0.70;;
24030;SDS011;12240;51.142;22.486;2022-07-29T07:21:28;1.33;;;0.70;;
24030;SDS011;12240;51.142;22.486;2022-07-29T07:23:57;2.22;;;0.90;;
24030;SDS011;12240;51.142;22.486;2022-07-29T07:26:27;6.00;;;0.70;;
24030;SDS011;12240;51.142;22.486;2022-07-29T07:28:55;1.50;;;0.73;;
24030;SDS011;12240;51.142;22.486;2022-07-29T07:31:23;2.60;;;0.70;;
24030;SDS011;12240;51.142;22.486;2022-07-29T07:33:52;2.63;;;0.70;;
24030;SDS011;12240;51.142;22.486;2022-07-29T07:36:20;2.63;;;0.70;;
24030;SDS011;12240;51.142;22.486;2022-07-29T07:38:49;1.90;;;0.70;;
24030;SDS011;12240;51.142;22.486;2022-07-29T07:41:17;6.35;;;1.00;;
24030;SDS011;12240;51.142;22.486;2022-07-29T07:43:46;4.95;;;0.80;;
24030;SDS011;12240;51.142;22.486;2022-07-29T07:46:14;3.78;;;0.70;;
24030;SDS011;12240;51.142;22.486;2022-07-29T07:48:43;4.10;;;0.80;;
24030;SDS011;12240;51.142;22.486;2022-07-29T07:51:11;2.85;;;0.77;;
24030;SDS011;12240;51.142;22.486;2022-07-29T07:53:39;2.38;;;0.70;;
24030;SDS011;12240;51.142;22.486;2022-07-29T07:56:08;4.47;;;0.98;;
24030;SDS011;12240;51.142;22.486;2022-07-29T07:58:38;1.20;;;0.65;;
24030;SDS011;12240;51.142;22.486;2022-07-29T08:01:08;1.60;;;0.60;;
24030;SDS011;12240;51.142;22.486;2022-07-29T08:03:37;2.55;;;0.70;;
24030;SDS011;12240;51.142;22.486;2022-07-29T08:06:06;2.17;;;0.50;;
24030;SDS011;12240;51.142;22.486;2022-07-29T08:08:34;3.38;;;0.70;;
24030;SDS011;12240;51.142;22.486;2022-07-29T08:11:02;2.03;;;0.65;;
24030;SDS011;12240;51.142;22.486;2022-07-29T08:13:36;4.45;;;0.73;;
24030;SDS011;12240;51.142;22.486;2022-07-29T08:16:05;3.42;;;0.70;;
24030;SDS011;12240;51.142;22.486;2022-07-29T08:18:43;0.90;;;0.70;;
24030;SDS011;12240;51.142;22.486;2022-07-29T08:21:13;3.00;;;0.50;;
24030;SDS011;12240;51.142;22.486;2022-07-29T08:23:44;1.93;;;0.60;;
24030;SDS011;12240;51.142;22.486;2022-07-29T08:26:42;2.22;;;0.70;;
24030;SDS011;12240;51.142;22.486;2022-07-29T08:29:11;5.40;;;0.75;;
24030;SDS011;12240;51.142;22.486;2022-07-29T08:31:45;3.35;;;0.77;;
24030;SDS011;12240;51.142;22.486;2022-07-29T08:34:14;3.88;;;0.70;;
24030;SDS011;12240;51.142;22.486;2022-07-29T08:36:42;2.25;;;0.60;;
24030;SDS011;12240;51.142;22.486;2022-07-29T08:39:16;5.15;;;1.45;;
24030;SDS011;12240;51.142;22.486;2022-07-29T08:41:44;1.65;;;0.80;;
24030;SDS011;12240;51.142;22.486;2022-07-29T08:44:23;2.42;;;0.70;;
24030;SDS011;12240;51.142;22.486;2022-07-29T08:46:56;2.47;;;0.85;;
24030;SDS011;12240;51.142;22.486;2022-07-29T08:49:24;2.65;;;0.68;;
24030;SDS011;12240;51.142;22.486;2022-07-29T08:51:53;1.27;;;0.50;;
24030;SDS011;12240;51.142;22.486;2022-07-29T08:54:23;6.68;;;0.75;;
24030;SDS011;12240;51.142;22.486;2022-07-29T08:56:51;1.52;;;0.80;;
24030;SDS011;12240;51.142;22.486;2022-07-29T09:01:57;1.98;;;0.50;;
24030;SDS011;12240;51.142;22.486;2022-07-29T09:04:29;2.47;;;0.65;;
24030;SDS011;12240;51.142;22.486;2022-07-29T09:07:02;1.23;;;0.65;;
24030;SDS011;12240;51.142;22.486;2022-07-29T09:09:33;3.45;;;0.70;;
24030;SDS011;12240;51.142;22.486;2022-07-29T09:12:01;3.55;;;0.60;;
24030;SDS011;12240;51.142;22.486;2022-07-29T09:14:31;7.85;;;1.27;;
24030;SDS011;12240;51.142;22.486;2022-07-29T09:16:59;4.38;;;0.70;;
24030;SDS011;12240;51.142;22.486;2022-07-29T09:19:30;2.40;;;0.60;;
24030;SDS011;12240;51.142;22.486;2022-07-29T09:22:03;3.47;;;0.45;;
24030;SDS011;12240;51.142;22.486;2022-07-29T09:24:38;2.78;;;0.60;;
24030;SDS011;12240;51.142;22.486;2022-07-29T09:27:22;1.50;;;0.60;;
24030;SDS011;12240;51.142;22.486;2022-07-29T09:32:55;5.85;;;0.90;;
24030;SDS011;12240;51.142;22.486;2022-07-29T09:35:25;4.43;;;0.85;;
24030;SDS011;12240;51.142;22.486;2022-07-29T09:37:54;3.78;;;0.80;;
24030;SDS011;12240;51.142;22.486;2022-07-29T09:40:24;2.67;;;0.90;;
24030;SDS011;12240;51.142;22.486;2022-07-29T09:42:55;2.28;;;0.80;;
24030;SDS011;12240;51.142;22.486;2022-07-29T09:45:28;1.55;;;0.60;;
24030;SDS011;12240;51.142;22.486;2022-07-29T09:48:12;2.63;;;0.70;;
24030;SDS011;12240;51.142;22.486;2022-07-29T09:50:46;2.58;;;0.82;;
24030;SDS011;12240;51.142;22.486;2022-07-29T09:53:31;3.13;;;0.80;;
24030;SDS011;12240;51.142;22.486;2022-07-29T09:56:05;1.90;;;0.75;;
24030;SDS011;12240;51.142;22.486;2022-07-29T09:58:33;3.88;;;0.68;;
24030;SDS011;12240;51.142;22.486;2022-07-29T10:01:02;3.47;;;0.75;;
24030;SDS011;12240;51.142;22.486;2022-07-29T10:03:31;3.00;;;0.88;;
24030;SDS011;12240;51.142;22.486;2022-07-29T10:06:06;3.92;;;0.90;;
24030;SDS011;12240;51.142;22.486;2022-07-29T10:08:36;3.03;;;1.05;;
24030;SDS011;12240;51.142;22.486;2022-07-29T10:11:09;2.70;;;0.80;;
24030;SDS011;12240;51.142;22.486;2022-07-29T10:13:46;1.77;;;0.73;;
24030;SDS011;12240;51.142;22.486;2022-07-29T10:16:16;2.65;;;0.77;;
24030;SDS011;12240;51.142;22.486;2022-07-29T10:18:45;5.47;;;0.80;;
24030;SDS011;12240;51.142;22.486;2022-07-29T10:21:14;1.55;;;0.73;;
24030;SDS011;12240;51.142;22.486;2022-07-29T10:24:02;3.17;;;0.98;;
24030;SDS011;12240;51.142;22.486;2022-07-29T10:26:41;3.42;;;0.90;;
24030;SDS011;12240;51.142;22.486;2022-07-29T10:29:11;4.22;;;0.80;;
24030;SDS011;12240;51.142;22.486;2022-07-29T10:31:43;5.40;;;0.80;;
24030;SDS011;12240;51.142;22.486;2022-07-29T10:34:30;1.45;;;0.85;;
24030;SDS011;12240;51.142;22.486;2022-07-29T10:44:03;3.47;;;1.00;;
24030;SDS011;12240;51.142;22.486;2022-07-29T10:46:45;2.97;;;1.10;;
24030;SDS011;12240;51.142;22.486;2022-07-29T10:57:12;2.30;;;0.80;;
24030;SDS011;12240;51.142;22.486;2022-07-29T10:59:42;1.65;;;0.93;;
24030;SDS011;12240;51.142;22.486;2022-07-29T11:05:10;1.83;;;0.70;;
24030;SDS011;12240;51.142;22.486;2022-07-29T11:07:40;2.42;;;1.13;;
24030;SDS011;12240;51.142;22.486;2022-07-29T11:10:53;1.20;;;0.63;;
24030;SDS011;12240;51.142;22.486;2022-07-29T11:13:49;4.03;;;1.00;;
24030;SDS011;12240;51.142;22.486;2022-07-29T11:16:23;3.08;;;0.80;;
24030;SDS011;12240;51.142;22.486;2022-07-29T11:21:40;3.53;;;1.00;;
24030;SDS011;12240;51.142;22.486;2022-07-29T11:24:22;1.30;;;0.80;;
24030;SDS011;12240;51.142;22.486;2022-07-29T11:27:09;4.47;;;0.93;;
24030;SDS011;12240;51.142;22.486;2022-07-29T11:30:03;1.58;;;1.00;;
24030;SDS011;12240;51.142;22.486;2022-07-29T11:32:43;6.75;;;1.10;;
24030;SDS011;12240;51.142;22.486;2022-07-29T11:35:21;1.92;;;0.80;;
24030;SDS011;12240;51.142;22.486;2022-07-29T11:38:23;2.53;;;1.13;;
24030;SDS011;12240;51.142;22.486;2022-07-29T11:43:47;1.50;;;0.80;;
24030;SDS011;12240;51.142;22.486;2022-07-29T11:52:09;2.13;;;0.90;;
24030;SDS011;12240;51.142;22.486;2022-07-29T11:54:38;2.97;;;1.23;;
24030;SDS011;12240;51.142;22.486;2022-07-29T11:57:26;5.60;;;1.00;;
24030;SDS011;12240;51.142;22.486;2022-07-29T12:00:04;2.92;;;1.15;;
24030;SDS011;12240;51.142;22.486;2022-07-29T12:02:41;2.78;;;0.90;;
24030;SDS011;12240;51.142;22.486;2022-07-29T12:05:15;1.80;;;1.02;;
24030;SDS011;12240;51.142;22.486;2022-07-29T12:08:16;1.08;;;0.82;;
24030;SDS011;12240;51.142;22.486;2022-07-29T12:10:50;4.90;;;1.00;;
24030;SDS011;12240;51.142;22.486;2022-07-29T12:13:19;2.38;;;1.10;;
24030;SDS011;12240;51.142;22.486;2022-07-29T12:16:03;6.97;;;1.10;;
24030;SDS011;12240;51.142;22.486;2022-07-29T12:18:32;1.02;;;0.80;;
24030;SDS011;12240;51.142;22.486;2022-07-29T12:21:01;2.88;;;1.08;;
24030;SDS011;12240;51.142;22.486;2022-07-29T12:23:31;1.63;;;1.00;;
24030;SDS011;12240;51.142;22.486;2022-07-29T12:26:04;4.97;;;0.90;;
24030;SDS011;12240;51.142;22.486;2022-07-29T12:28:48;6.53;;;1.25;;
24030;SDS011;12240;51.142;22.486;2022-07-29T12:31:16;1.48;;;0.90;;
24030;SDS011;12240;51.142;22.486;2022-07-29T12:34:05;3.42;;;0.95;;
24030;SDS011;12240;51.142;22.486;2022-07-29T12:36:33;2.13;;;1.10;;
24030;SDS011;12240;51.142;22.486;2022-07-29T12:39:01;1.95;;;0.90;;
24030;SDS011;12240;51.142;22.486;2022-07-29T12:41:31;2.78;;;1.00;;
24030;SDS011;12240;51.142;22.486;2022-07-29T12:43:59;1.75;;;0.80;;
24030;SDS011;12240;51.142;22.486;2022-07-29T12:46:27;2.00;;;0.90;;
24030;SDS011;12240;51.142;22.486;2022-07-29T12:48:55;1.80;;;1.00;;
24030;SDS011;12240;51.142;22.486;2022-07-29T12:51:31;1.42;;;0.93;;
24030;SDS011;12240;51.142;22.486;2022-07-29T12:56:43;2.30;;;1.20;;
24030;SDS011;12240;51.142;22.486;2022-07-29T12:59:13;1.60;;;0.85;;
24030;SDS011;12240;51.142;22.486;2022-07-29T13:01:47;1.92;;;1.08;;
24030;SDS011;12240;51.142;22.486;2022-07-29T13:04:30;1.77;;;1.05;;
24030;SDS011;12240;51.142;22.486;2022-07-29T13:07:04;2.75;;;1.00;;
24030;SDS011;12240;51.142;22.486;2022-07-29T13:09:54;5.50;;;1.20;;
24030;SDS011;12240;51.142;22.486;2022-07-29T13:12:37;2.70;;;0.80;;
24030;SDS011;12240;51.142;22.486;2022-07-29T13:15:13;1.45;;;0.80;;
24030;SDS011;12240;51.142;22.486;2022-07-29T13:17:43;1.92;;;0.90;;
24030;SDS011;12240;51.142;22.486;2022-07-29T13:22:47;2.58;;;1.13;;
24030;SDS011;12240;51.142;22.486;2022-07-29T13:25:23;3.55;;;1.33;;
24030;SDS011;12240;51.142;22.486;2022-07-29T13:28:01;2.03;;;1.00;;
24030;SDS011;12240;51.142;22.486;2022-07-29T13:30:29;2.00;;;0.90;;
24030;SDS011;12240;51.142;22.486;2022-07-29T13:32:57;1.15;;;0.98;;
24030;SDS011;12240;51.142;22.486;2022-07-29T13:35:25;3.15;;;0.90;;
24030;SDS011;12240;51.142;22.486;2022-07-29T13:37:56;5.72;;;0.90;;
24030;SDS011;12240;51.142;22.486;2022-07-29T13:40:25;1.80;;;0.90;;
24030;SDS011;12240;51.142;22.486;2022-07-29T13:42:53;2.25;;;1.10;;
24030;SDS011;12240;51.142;22.486;2022-07-29T13:45:21;5.10;;;1.10;;
24030;SDS011;12240;51.142;22.486;2022-07-29T13:47:49;2.92;;;1.00;;
24030;SDS011;12240;51.142;22.486;2022-07-29T13:50:18;3.13;;;1.10;;
24030;SDS011;12240;51.142;22.486;2022-07-29T13:52:46;6.97;;;1.90;;
24030;SDS011;12240;51.142;22.486;2022-07-29T13:55:15;3.08;;;1.40;;
24030;SDS011;12240;51.142;22.486;2022-07-29T13:57:43;4.05;;;1.20;;
24030;SDS011;12240;51.142;22.486;2022-07-29T14:00:12;4.13;;;1.33;;
24030;SDS011;12240;51.142;22.486;2022-07-29T14:02:40;5.40;;;1.35;;
24030;SDS011;12240;51.142;22.486;2022-07-29T14:07:39;3.45;;;1.27;;
24030;SDS011;12240;51.142;22.486;2022-07-29T14:10:07;2.55;;;1.25;;
24030;SDS011;12240;51.142;22.486;2022-07-29T14:12:36;2.60;;;1.25;;
24030;SDS011;12240;51.142;22.486;2022-07-29T14:15:05;2.00;;;0.98;;
24030;SDS011;12240;51.142;22.486;2022-07-29T14:17:34;2.15;;;1.40;;
24030;SDS011;12240;51.142;22.486;2022-07-29T14:20:02;2.13;;;1.02;;
24030;SDS011;12240;51.142;22.486;2022-07-29T14:22:32;2.38;;;1.20;;
24030;SDS011;12240;51.142;22.486;2022-07-29T14:25:08;2.55;;;1.30;;
24030;SDS011;12240;51.142;22.486;2022-07-29T14:27:42;2.22;;;1.20;;
24030;SDS011;12240;51.142;22.486;2022-07-29T14:30:10;1.30;;;1.00;;
24030;SDS011;12240;51.142;22.486;2022-07-29T14:32:39;4.72;;;0.93;;
24030;SDS011;12240;51.142;22.486;2022-07-29T14:35:08;1.67;;;0.98;;
24030;SDS011;12240;51.142;22.486;2022-07-29T14:37:38;5.50;;;1.17;;
24030;SDS011;12240;51.142;22.486;2022-07-29T14:40:08;3.70;;;1.05;;
24030;SDS011;12240;51.142;22.486;2022-07-29T14:42:37;1.83;;;0.90;;
24030;SDS011;12240;51.142;22.486;2022-07-29T14:45:06;4.60;;;1.25;;
24030;SDS011;12240;51.142;22.486;2022-07-29T14:47:36;8.07;;;1.00;;
24030;SDS011;12240;51.142;22.486;2022-07-29T14:50:05;4.75;;;1.17;;
24030;SDS011;12240;51.142;22.486;2022-07-29T14:52:34;1.83;;;1.20;;
24030;SDS011;12240;51.142;22.486;2022-07-29T14:55:03;2.83;;;1.00;;
24030;SDS011;12240;51.142;22.486;2022-07-29T14:57:46;1.45;;;1.05;;
24030;SDS011;12240;51.142;22.486;2022-07-29T15:00:15;4.60;;;1.15;;
24030;SDS011;12240;51.142;22.486;2022-07-29T15:02:44;2.92;;;1.02;;
24030;SDS011;12240;51.142;22.486;2022-07-29T15:05:28;1.45;;;1.10;;
24030;SDS011;12240;51.142;22.486;2022-07-29T15:07:58;6.13;;;1.20;;
24030;SDS011;12240;51.142;22.486;2022-07-29T15:10:27;1.48;;;0.90;;
24030;SDS011;12240;51.142;22.486;2022-07-29T15:12:56;3.35;;;1.30;;
24030;SDS011;12240;51.142;22.486;2022-07-29T15:15:24;2.40;;;0.98;;
24030;SDS011;12240;51.142;22.486;2022-07-29T15:17:53;2.47;;;1.02;;
24030;SDS011;12240;51.142;22.486;2022-07-29T15:20:21;2.60;;;1.17;;
24030;SDS011;12240;51.142;22.486;2022-07-29T15:25:22;2.08;;;1.23;;
24030;SDS011;12240;51.142;22.486;2022-07-29T15:27:54;2.13;;;1.10;;
24030;SDS011;12240;51.142;22.486;2022-07-29T15:30:27;3.85;;;1.10;;
24030;SDS011;12240;51.142;22.486;2022-07-29T15:33:00;5.32;;;1.10;;
24030;SDS011;12240;51.142;22.486;2022-07-29T15:35:30;1.58;;;1.10;;
24030;SDS011;12240;51.142;22.486;2022-07-29T15:37:59;4.18;;;1.02;;
24030;SDS011;12240;51.142;22.486;2022-07-29T15:40:27;1.75;;;0.80;;
24030;SDS011;12240;51.142;22.486;2022-07-29T15:42:55;4.43;;;1.23;;
24030;SDS011;12240;51.142;22.486;2022-07-29T15:45:24;3.80;;;1.10;;
24030;SDS011;12240;51.142;22.486;2022-07-29T15:47:58;3.97;;;1.10;;
24030;SDS011;12240;51.142;22.486;2022-07-29T15:50:26;1.95;;;1.20;;
24030;SDS011;12240;51.142;22.486;2022-07-29T15:52:54;2.10;;;1.00;;
24030;SDS011;12240;51.142;22.486;2022-07-29T15:55:22;3.85;;;1.10;;
24030;SDS011;12240;51.142;22.486;2022-07-29T15:57:51;2.65;;;1.13;;
24030;SDS011;12240;51.142;22.486;2022-07-29T16:00:24;5.82;;;1.30;;
24030;SDS011;12240;51.142;22.486;2022-07-29T16:02:52;3.75;;;1.00;;